createdAt,value
2018-06-09T00:00:21.466Z,21.77
2018-06-09T00:01:31.181Z,21.83
2018-06-09T00:02:41.266Z,21.69
2018-06-09T00:03:50.752Z,21.72
2018-06-09T00:05:00.718Z,21.68
2018-06-09T00:06:10.681Z,21.7
2018-06-09T00:07:20.644Z,21.63
2018-06-09T00:08:30.635Z,21.65
2018-06-09T00:09:40.606Z,21.63
2018-06-09T00:10:50.391Z,21.58
2018-06-09T00:12:00.355Z,21.6
2018-06-09T00:13:10.074Z,21.59
2018-06-09T00:14:20.045Z,21.59
2018-06-09T00:15:30.012Z,21.59
2018-06-09T00:16:39.720Z,21.53
2018-06-09T00:17:49.692Z,21.48
2018-06-09T00:18:59.414Z,21.56
2018-06-09T00:20:09.427Z,21.48
2018-06-09T00:21:19.426Z,21.45
2018-06-09T00:22:29.132Z,21.48
2018-06-09T00:23:39.114Z,21.41
2018-06-09T00:24:49.091Z,21.43
2018-06-09T00:25:59.052Z,21.41
2018-06-09T00:27:09.020Z,21.44
2018-06-09T00:28:18.989Z,21.4
2018-06-09T00:29:28.966Z,21.44
2018-06-09T00:30:38.934Z,21.37
2018-06-09T00:31:49.101Z,21.35
2018-06-09T00:32:58.817Z,21.29
2018-06-09T00:34:08.784Z,21.32
2018-06-09T00:35:18.492Z,21.28
2018-06-09T00:36:28.467Z,21.29
2018-06-09T00:37:38.441Z,21.26
2018-06-09T00:38:48.414Z,21.37
2018-06-09T00:39:58.121Z,21.28
2018-06-09T00:41:08.095Z,21.2
2018-06-09T00:42:17.037Z,21.23
2018-06-09T00:43:27.007Z,21.2
2018-06-09T00:44:36.974Z,21.25
2018-06-09T00:45:46.678Z,21.2
2018-06-09T00:46:56.652Z,21.15
2018-06-09T00:48:06.630Z,21.15
2018-06-09T00:49:16.615Z,21.11
2018-06-09T00:50:26.331Z,21.08
2018-06-09T00:51:36.306Z,21.15
2018-06-09T00:52:46.014Z,21.07
2018-06-09T00:53:55.982Z,21.05
2018-06-09T00:55:05.685Z,21.04
2018-06-09T00:56:15.400Z,21.1
2018-06-09T00:57:25.364Z,21.07
2018-06-09T00:58:35.346Z,21.07
2018-06-09T00:59:45.306Z,21
2018-06-09T01:00:54.784Z,21.04
2018-06-09T01:02:04.762Z,20.92
2018-06-09T01:03:14.739Z,20.93
2018-06-09T01:04:24.717Z,20.93
2018-06-09T01:05:33.907Z,20.92
2018-06-09T01:06:43.916Z,20.86
2018-06-09T01:07:53.882Z,20.93
2018-06-09T01:09:03.853Z,20.89
2018-06-09T01:10:13.844Z,20.89
2018-06-09T01:11:23.553Z,20.82
2018-06-09T01:12:33.531Z,20.89
2018-06-09T01:13:43.246Z,20.86
2018-06-09T01:14:53.258Z,20.8
2018-06-09T01:16:02.974Z,20.8
2018-06-09T01:17:12.933Z,20.73
2018-06-09T01:18:22.957Z,20.75
2018-06-09T01:19:32.675Z,20.78
2018-06-09T01:20:42.645Z,20.74
2018-06-09T01:21:52.635Z,20.71
2018-06-09T01:23:02.617Z,20.7
2018-06-09T01:24:12.333Z,20.68
2018-06-09T01:25:22.308Z,20.67
2018-06-09T01:26:32.291Z,20.67
2018-06-09T01:27:42.259Z,20.67
2018-06-09T01:28:52.224Z,20.6
2018-06-09T01:30:01.937Z,20.56
2018-06-09T01:31:11.924Z,20.56
2018-06-09T01:32:21.883Z,20.52
2018-06-09T01:33:31.337Z,20.49
2018-06-09T01:34:41.325Z,20.44
2018-06-09T01:35:51.290Z,20.39
2018-06-09T01:37:01.255Z,20.44
2018-06-09T01:38:11.232Z,20.33
2018-06-09T01:39:21.197Z,20.33
2018-06-09T01:40:31.165Z,20.37
2018-06-09T01:41:41.125Z,20.39
2018-06-09T01:42:50.836Z,20.26
2018-06-09T01:44:00.560Z,20.26
2018-06-09T01:45:10.272Z,20.21
2018-06-09T01:46:20.248Z,20.29
2018-06-09T01:47:30.215Z,20.26
2018-06-09T01:48:39.921Z,20.17
2018-06-09T01:49:49.883Z,20.21
2018-06-09T01:50:59.597Z,20.11
2018-06-09T01:52:09.585Z,20.14
2018-06-09T01:53:19.552Z,20.1
2018-06-09T01:54:29.253Z,20.15
2018-06-09T01:55:39.220Z,20.12
2018-06-09T01:56:49.196Z,20.1
2018-06-09T01:57:59.171Z,19.97
2018-06-09T01:59:09.137Z,19.96
2018-06-09T02:00:18.858Z,19.96
2018-06-09T02:01:28.812Z,19.92
2018-06-09T02:02:38.771Z,19.99
2018-06-09T02:03:48.473Z,19.82
2018-06-09T02:04:58.179Z,19.84
2018-06-09T02:06:08.196Z,19.85
2018-06-09T02:07:17.914Z,19.87
2018-06-09T02:08:27.875Z,19.81
2018-06-09T02:09:37.586Z,19.85
2018-06-09T02:10:47.554Z,19.78
2018-06-09T02:11:57.521Z,19.82
2018-06-09T02:13:07.487Z,19.84
2018-06-09T02:14:17.197Z,19.87
2018-06-09T02:15:26.923Z,19.79
2018-06-09T02:16:36.628Z,19.84
2018-06-09T02:17:46.592Z,19.74
2018-06-09T02:18:56.564Z,19.84
2018-06-09T02:20:06.276Z,19.84
2018-06-09T02:21:16.242Z,19.74
2018-06-09T02:22:25.965Z,19.79
2018-06-09T02:23:35.679Z,19.64
2018-06-09T02:24:45.656Z,19.77
2018-06-09T02:25:55.631Z,19.74
2018-06-09T02:27:05.601Z,19.7
2018-06-09T02:28:15.578Z,19.71
2018-06-09T02:29:25.300Z,19.71
2018-06-09T02:30:35.026Z,19.7
2018-06-09T02:31:44.796Z,19.77
2018-06-09T02:32:54.799Z,19.74
2018-06-09T02:34:04.795Z,19.71
2018-06-09T02:35:14.769Z,19.7
2018-06-09T02:36:24.740Z,19.78
2018-06-09T02:37:34.715Z,19.72
2018-06-09T02:38:44.420Z,19.72
2018-06-09T02:39:54.383Z,19.64
2018-06-09T02:41:04.577Z,19.67
2018-06-09T02:42:14.302Z,19.59
2018-06-09T02:43:24.286Z,19.52
2018-06-09T02:44:34.258Z,19.48
2018-06-09T02:45:44.236Z,19.62
2018-06-09T02:46:54.212Z,19.57
2018-06-09T02:48:04.184Z,19.6
2018-06-09T02:49:13.903Z,19.59
2018-06-09T02:50:23.877Z,19.59
2018-06-09T02:51:33.849Z,19.53
2018-06-09T02:52:43.817Z,19.56
2018-06-09T02:53:53.795Z,19.53
2018-06-09T02:55:03.511Z,19.44
2018-06-09T02:56:13.539Z,19.44
2018-06-09T02:57:23.533Z,19.45
2018-06-09T02:58:32.980Z,19.47
2018-06-09T02:59:42.971Z,19.49
2018-06-09T03:00:52.955Z,19.45
2018-06-09T03:02:02.676Z,19.47
2018-06-09T03:03:12.646Z,19.42
2018-06-09T03:04:22.617Z,19.38
2018-06-09T03:05:32.583Z,19.38
2018-06-09T03:06:42.564Z,19.42
2018-06-09T03:07:52.551Z,19.42
2018-06-09T03:09:02.562Z,19.39
2018-06-09T03:10:12.566Z,19.39
2018-06-09T03:11:22.542Z,19.32
2018-06-09T03:12:32.265Z,19.32
2018-06-09T03:13:41.998Z,19.37
2018-06-09T03:14:51.970Z,19.3
2018-06-09T03:16:01.955Z,19.27
2018-06-09T03:17:11.948Z,19.3
2018-06-09T03:18:21.442Z,19.3
2018-06-09T03:19:31.485Z,19.32
2018-06-09T03:20:41.469Z,19.27
2018-06-09T03:21:51.436Z,19.24
2018-06-09T03:23:01.409Z,19.26
2018-06-09T03:24:11.105Z,19.26
2018-06-09T03:25:21.092Z,19.27
2018-06-09T03:26:31.069Z,19.2
2018-06-09T03:27:40.790Z,19.22
2018-06-09T03:28:50.750Z,19.17
2018-06-09T03:30:00.459Z,19.29
2018-06-09T03:31:10.183Z,19.17
2018-06-09T03:32:19.912Z,19.22
2018-06-09T03:33:29.615Z,19.22
2018-06-09T03:34:39.324Z,19.2
2018-06-09T03:35:49.286Z,19.2
2018-06-09T03:36:58.991Z,19.27
2018-06-09T03:38:08.699Z,19.2
2018-06-09T03:39:18.677Z,19.3
2018-06-09T03:40:28.709Z,19.29
2018-06-09T03:41:38.681Z,19.24
2018-06-09T03:42:48.640Z,19.32
2018-06-09T03:43:58.611Z,19.34
2018-06-09T03:45:08.587Z,19.37
2018-06-09T03:46:18.554Z,19.39
2018-06-09T03:47:28.261Z,19.41
2018-06-09T03:48:38.229Z,19.35
2018-06-09T03:49:48.197Z,19.35
2018-06-09T03:50:58.166Z,19.38
2018-06-09T03:52:08.129Z,19.34
2018-06-09T03:53:18.103Z,19.37
2018-06-09T03:54:27.836Z,19.37
2018-06-09T03:55:37.851Z,19.41
2018-06-09T03:56:47.832Z,19.39
2018-06-09T03:57:57.809Z,19.42
2018-06-09T03:59:07.515Z,19.47
2018-06-09T04:00:17.227Z,19.44
2018-06-09T04:01:27.200Z,19.45
2018-06-09T04:02:37.209Z,19.41
2018-06-09T04:03:46.926Z,19.47
2018-06-09T04:04:56.906Z,19.42
2018-06-09T04:06:06.638Z,19.55
2018-06-09T04:07:16.345Z,19.44
2018-06-09T04:08:26.081Z,19.44
2018-06-09T04:09:36.044Z,19.57
2018-06-09T04:10:45.748Z,19.53
2018-06-09T04:11:55.719Z,19.57
2018-06-09T04:13:05.679Z,19.57
2018-06-09T04:14:15.390Z,19.56
2018-06-09T04:15:25.355Z,19.57
2018-06-09T04:16:35.071Z,19.56
2018-06-09T04:17:45.052Z,19.62
2018-06-09T04:18:55.028Z,19.64
2018-06-09T04:20:04.997Z,19.67
2018-06-09T04:21:14.959Z,19.71
2018-06-09T04:22:24.911Z,19.72
2018-06-09T04:23:34.616Z,19.67
2018-06-09T04:24:44.584Z,19.79
2018-06-09T04:25:54.560Z,19.84
2018-06-09T04:27:04.285Z,19.89
2018-06-09T04:28:13.998Z,19.81
2018-06-09T04:29:23.774Z,19.78
2018-06-09T04:30:33.481Z,19.85
2018-06-09T04:31:42.937Z,19.81
2018-06-09T04:32:52.659Z,19.9
2018-06-09T04:34:02.433Z,19.9
2018-06-09T04:35:12.419Z,19.87
2018-06-09T04:36:22.390Z,20
2018-06-09T04:37:32.104Z,20.03
2018-06-09T04:38:41.814Z,20.07
2018-06-09T04:39:51.612Z,20.15
2018-06-09T04:41:01.694Z,20.14
2018-06-09T04:42:11.672Z,20.1
2018-06-09T04:43:21.644Z,20.14
2018-06-09T04:44:31.610Z,20.14
2018-06-09T04:45:41.316Z,20.19
2018-06-09T04:46:51.235Z,20.24
2018-06-09T04:48:01.196Z,20.29
2018-06-09T04:49:10.906Z,20.27
2018-06-09T04:50:20.884Z,20.19
2018-06-09T04:51:30.601Z,20.32
2018-06-09T04:52:40.580Z,20.33
2018-06-09T04:53:50.552Z,20.34
2018-06-09T04:55:00.265Z,20.44
2018-06-09T04:56:10.244Z,20.5
2018-06-09T04:57:20.206Z,20.46
2018-06-09T04:58:30.347Z,20.55
2018-06-09T04:59:40.385Z,20.5
2018-06-09T05:00:50.106Z,20.6
2018-06-09T05:02:00.089Z,20.64
2018-06-09T05:03:10.059Z,20.63
2018-06-09T05:04:20.018Z,20.75
2018-06-09T05:05:29.740Z,20.82
2018-06-09T05:06:39.447Z,20.73
2018-06-09T05:07:49.436Z,20.82
2018-06-09T05:08:59.141Z,20.92
2018-06-09T05:10:08.601Z,21.01
2018-06-09T05:11:18.564Z,20.95
2018-06-09T05:12:28.545Z,20.89
2018-06-09T05:13:38.521Z,20.92
2018-06-09T05:14:47.971Z,21.1
2018-06-09T05:15:57.937Z,21.07
2018-06-09T05:17:07.903Z,21.1
2018-06-09T05:18:17.903Z,21.19
2018-06-09T05:19:27.988Z,21.17
2018-06-09T05:20:37.704Z,21.14
2018-06-09T05:21:47.684Z,21.25
2018-06-09T05:22:57.652Z,21.29
2018-06-09T05:24:07.632Z,21.33
2018-06-09T05:25:17.611Z,21.3
2018-06-09T05:26:27.702Z,21.37
2018-06-09T05:27:37.413Z,21.4
2018-06-09T05:28:47.383Z,21.41
2018-06-09T05:29:57.352Z,21.53
2018-06-09T05:31:07.339Z,21.6
2018-06-09T05:32:17.303Z,21.53
2018-06-09T05:33:27.302Z,21.6
2018-06-09T05:34:36.762Z,21.59
2018-06-09T05:35:46.760Z,21.66
2018-06-09T05:36:56.735Z,21.65
2018-06-09T05:38:06.715Z,21.75
2018-06-09T05:39:16.702Z,21.85
2018-06-09T05:40:26.418Z,21.83
2018-06-09T05:41:36.405Z,21.94
2018-06-09T05:42:46.373Z,21.91
2018-06-09T05:43:56.076Z,21.97
2018-06-09T05:45:06.045Z,22.04
2018-06-09T05:46:15.508Z,22.06
2018-06-09T05:47:25.493Z,22.07
2018-06-09T05:48:35.204Z,22.21
2018-06-09T05:49:45.178Z,22.3
2018-06-09T05:50:55.145Z,22.19
2018-06-09T05:52:05.105Z,22.3
2018-06-09T05:53:15.075Z,22.33
2018-06-09T05:54:24.787Z,22.34
2018-06-09T05:55:34.874Z,22.31
2018-06-09T05:56:44.327Z,22.44
2018-06-09T05:57:54.035Z,22.41
2018-06-09T05:59:03.480Z,22.38
2018-06-09T06:00:13.203Z,22.55
2018-06-09T06:01:23.189Z,22.53
2018-06-09T06:02:33.148Z,22.55
2018-06-09T06:03:42.871Z,22.61
2018-06-09T06:04:52.842Z,22.67
2018-06-09T06:06:02.853Z,22.68
2018-06-09T06:07:12.569Z,22.68
2018-06-09T06:08:22.021Z,22.81
2018-06-09T06:09:32.177Z,22.84
2018-06-09T06:10:42.146Z,22.8
2018-06-09T06:11:51.861Z,22.98
2018-06-09T06:13:01.841Z,23.01
2018-06-09T06:14:11.834Z,23.06
2018-06-09T06:15:21.548Z,23.08
2018-06-09T06:16:31.516Z,23.13
2018-06-09T06:17:41.224Z,23.11
2018-06-09T06:18:51.384Z,23.16
2018-06-09T06:20:01.406Z,23.17
2018-06-09T06:21:11.385Z,23.29
2018-06-09T06:22:21.373Z,23.36
2018-06-09T06:23:31.093Z,23.36
2018-06-09T06:24:40.819Z,23.28
2018-06-09T06:25:50.545Z,23.42
2018-06-09T06:27:00.521Z,23.45
2018-06-09T06:28:10.525Z,23.54
2018-06-09T06:29:20.236Z,23.58
2018-06-09T06:30:30.212Z,23.7
2018-06-09T06:31:40.198Z,23.73
2018-06-09T06:32:50.169Z,23.79
2018-06-09T06:34:00.157Z,23.94
2018-06-09T06:35:09.621Z,23.88
2018-06-09T06:36:19.599Z,23.95
2018-06-09T06:37:29.563Z,24.07
2018-06-09T06:38:39.542Z,24.07
2018-06-09T06:39:49.252Z,24.11
2018-06-09T06:40:58.969Z,24.21
2018-06-09T06:42:08.935Z,24.18
2018-06-09T06:43:18.663Z,24.21
2018-06-09T06:44:28.632Z,24.19
2018-06-09T06:45:38.338Z,24.22
2018-06-09T06:46:48.317Z,24.26
2018-06-09T06:47:58.306Z,24.36
2018-06-09T06:49:08.011Z,24.41
2018-06-09T06:50:18.111Z,24.5
2018-06-09T06:51:28.271Z,24.51
2018-06-09T06:52:38.244Z,24.62
2018-06-09T06:53:47.967Z,24.68
2018-06-09T06:54:57.674Z,24.77
2018-06-09T06:56:07.650Z,24.75
2018-06-09T06:57:17.634Z,24.82
2018-06-09T06:58:27.614Z,24.96
2018-06-09T06:59:37.615Z,24.94
2018-06-09T07:00:47.599Z,24.93
2018-06-09T07:01:57.573Z,24.97
2018-06-09T07:03:07.720Z,25.01
2018-06-09T07:04:17.443Z,25.07
2018-06-09T07:05:27.158Z,25.04
2018-06-09T07:06:36.886Z,25.16
2018-06-09T07:07:46.865Z,25.29
2018-06-09T07:08:56.926Z,25.29
2018-06-09T07:10:06.664Z,25.4
2018-06-09T07:11:16.651Z,25.41
2018-06-09T07:12:26.365Z,25.51
2018-06-09T07:13:35.943Z,25.49
2018-06-09T07:14:45.396Z,25.67
2018-06-09T07:15:54.853Z,25.68
2018-06-09T07:17:04.837Z,25.76
2018-06-09T07:18:14.856Z,25.73
2018-06-09T07:19:24.838Z,25.77
2018-06-09T07:20:34.831Z,25.85
2018-06-09T07:21:44.809Z,25.88
2018-06-09T07:22:54.789Z,25.93
2018-06-09T07:24:04.765Z,26.04
2018-06-09T07:25:14.728Z,25.99
2018-06-09T07:26:24.442Z,25.98
2018-06-09T07:27:34.428Z,26.08
2018-06-09T07:28:43.631Z,26.03
2018-06-09T07:29:53.632Z,26.22
2018-06-09T07:31:03.348Z,26.13
2018-06-09T07:32:13.333Z,26.37
2018-06-09T07:33:23.038Z,26.37
2018-06-09T07:34:32.514Z,26.39
2018-06-09T07:35:42.484Z,26.49
2018-06-09T07:36:52.457Z,26.64
2018-06-09T07:38:02.435Z,26.63
2018-06-09T07:39:12.412Z,26.67
2018-06-09T07:40:21.870Z,26.71
2018-06-09T07:41:31.324Z,26.71
2018-06-09T07:42:41.312Z,26.7
2018-06-09T07:43:51.024Z,26.73
2018-06-09T07:45:00.728Z,26.81
2018-06-09T07:46:10.439Z,26.85
2018-06-09T07:47:20.438Z,26.93
2018-06-09T07:48:30.409Z,26.96
2018-06-09T07:49:40.122Z,27
2018-06-09T07:50:49.855Z,27.05
2018-06-09T07:51:59.826Z,27.07
2018-06-09T07:53:09.546Z,27.18
2018-06-09T07:54:19.553Z,27.19
2018-06-09T07:55:29.547Z,27.28
2018-06-09T07:56:39.519Z,27.35
2018-06-09T07:57:49.237Z,27.45
2018-06-09T07:58:59.224Z,27.47
2018-06-09T08:00:08.933Z,27.45
2018-06-09T08:01:18.657Z,27.61
2018-06-09T08:02:28.639Z,27.63
2018-06-09T08:03:38.621Z,27.61
2018-06-09T08:04:48.608Z,27.61
2018-06-09T08:05:58.336Z,27.75
2018-06-09T08:07:08.324Z,27.78
2018-06-09T08:08:18.051Z,27.78
2018-06-09T08:09:28.012Z,27.91
2018-06-09T08:10:37.722Z,27.95
2018-06-09T08:11:47.717Z,27.93
2018-06-09T08:12:57.198Z,28.01
2018-06-09T08:14:07.359Z,28.12
2018-06-09T08:15:17.359Z,28.19
2018-06-09T08:16:27.355Z,28.34
2018-06-09T08:17:37.342Z,28.35
2018-06-09T08:18:47.062Z,28.47
2018-06-09T08:19:57.047Z,28.59
2018-06-09T08:21:07.043Z,28.75
2018-06-09T08:22:16.757Z,28.71
2018-06-09T08:23:26.530Z,28.77
2018-06-09T08:24:36.203Z,28.67
2018-06-09T08:25:46.196Z,28.75
2018-06-09T08:26:56.167Z,28.8
2018-06-09T08:28:06.141Z,28.84
2018-06-09T08:29:15.779Z,28.97
2018-06-09T08:30:25.289Z,29.03
2018-06-09T08:31:35.007Z,29.1
2018-06-09T08:32:44.997Z,29.18
2018-06-09T08:33:55.002Z,29.25
2018-06-09T08:35:04.473Z,29.42
2018-06-09T08:36:14.864Z,29.44
2018-06-09T08:37:24.450Z,29.43
2018-06-09T08:38:34.438Z,29.39
2018-06-09T08:39:44.162Z,29.4
2018-06-09T08:40:53.884Z,29.62
2018-06-09T08:42:04.132Z,29.76
2018-06-09T08:43:13.894Z,29.96
2018-06-09T08:44:23.361Z,30.24
2018-06-09T08:45:33.086Z,30.61
2018-06-09T08:46:42.548Z,30.99
2018-06-09T08:47:52.282Z,31.15
2018-06-09T08:49:02.268Z,31.35
2018-06-09T08:50:12.001Z,31.35
2018-06-09T08:51:21.995Z,31.52
2018-06-09T08:52:31.983Z,31.52
2018-06-09T08:53:41.966Z,31.79
2018-06-09T08:54:51.694Z,31.98
2018-06-09T08:56:01.684Z,32.09
2018-06-09T08:57:11.416Z,32.09
2018-06-09T08:58:21.165Z,32.11
2018-06-09T08:59:31.157Z,32.12
2018-06-09T09:00:40.918Z,32.38
2018-06-09T09:01:50.650Z,32.49
2018-06-09T09:03:00.642Z,32.57
2018-06-09T09:04:10.374Z,32.68
2018-06-09T09:05:20.106Z,32.68
2018-06-09T09:06:30.100Z,32.68
2018-06-09T09:07:40.080Z,32.66
2018-06-09T09:08:49.829Z,32.51
2018-06-09T09:09:59.557Z,32.29
2018-06-09T09:11:09.543Z,32.37
2018-06-09T09:12:19.272Z,32.37
2018-06-09T09:13:29.286Z,32.35
2018-06-09T09:14:39.274Z,32.44
2018-06-09T09:15:48.990Z,32.59
2018-06-09T09:16:58.455Z,32.64
2018-06-09T09:18:08.465Z,32.63
2018-06-09T09:19:18.465Z,32.68
2018-06-09T09:20:28.197Z,32.61
2018-06-09T09:21:38.211Z,32.81
2018-06-09T09:22:48.199Z,32.94
2018-06-09T09:23:57.929Z,33.39
2018-06-09T09:25:07.915Z,33.7
2018-06-09T09:26:17.663Z,33.81
2018-06-09T09:27:27.721Z,33.97
2018-06-09T09:28:37.707Z,33.66
2018-06-09T09:29:47.454Z,33.63
2018-06-09T09:30:57.202Z,33.53
2018-06-09T09:32:07.357Z,33.58
2018-06-09T09:33:17.381Z,33.65
2018-06-09T09:34:26.857Z,33.73
2018-06-09T09:35:36.850Z,33.92
2018-06-09T09:36:46.572Z,34.04
2018-06-09T09:37:56.563Z,33.95
2018-06-09T09:39:06.592Z,34.06
2018-06-09T09:40:16.591Z,33.77
2018-06-09T09:41:26.324Z,33.77
2018-06-09T09:42:36.336Z,33.84
2018-06-09T09:43:46.338Z,33.81
2018-06-09T09:44:56.342Z,34.16
2018-06-09T09:46:06.345Z,34.6
2018-06-09T09:47:16.375Z,34.97
2018-06-09T09:48:26.115Z,35.23
2018-06-09T09:49:36.122Z,35.18
2018-06-09T09:50:46.105Z,35.5
2018-06-09T09:51:56.086Z,35.54
2018-06-09T09:53:06.096Z,35.47
2018-06-09T09:54:16.106Z,35.32
2018-06-09T09:55:25.596Z,35.15
2018-06-09T09:56:35.581Z,35.35
2018-06-09T09:57:45.598Z,35.81
2018-06-09T09:58:55.595Z,35.52
2018-06-09T10:00:05.586Z,35
2018-06-09T10:01:15.579Z,34.97
2018-06-09T10:02:25.553Z,35.08
2018-06-09T10:03:35.539Z,35.19
2018-06-09T10:04:45.674Z,35.25
2018-06-09T10:05:55.592Z,35.34
2018-06-09T10:07:05.594Z,35
2018-06-09T10:08:15.334Z,34.89
2018-06-09T10:09:25.342Z,34.78
2018-06-09T10:10:35.353Z,34.91
2018-06-09T10:11:45.346Z,35.22
2018-06-09T10:12:55.076Z,35.26
2018-06-09T10:14:04.816Z,35.44
2018-06-09T10:15:14.814Z,35.57
2018-06-09T10:16:24.580Z,35.41
2018-06-09T10:17:34.580Z,35.42
2018-06-09T10:18:44.575Z,35.23
2018-06-09T10:19:54.312Z,35.22
2018-06-09T10:21:04.304Z,35.26
2018-06-09T10:22:14.300Z,35.63
2018-06-09T10:23:24.290Z,35.76
2018-06-09T10:24:34.277Z,35.79
2018-06-09T10:25:44.268Z,35.81
2018-06-09T10:26:54.016Z,35.45
2018-06-09T10:28:03.499Z,35.2
2018-06-09T10:29:13.244Z,35.08
2018-06-09T10:30:23.288Z,35.22
2018-06-09T10:31:33.054Z,35.25
2018-06-09T10:32:43.202Z,35.05
2018-06-09T10:33:53.287Z,35.01
2018-06-09T10:35:03.313Z,35.08
2018-06-09T10:36:13.060Z,35.23
2018-06-09T10:37:22.790Z,35
2018-06-09T10:38:32.787Z,34.76
2018-06-09T10:39:42.823Z,34.73
2018-06-09T10:40:52.822Z,34.7
2018-06-09T10:42:02.821Z,34.75
2018-06-09T10:43:12.826Z,35.25
2018-06-09T10:44:22.549Z,35.71
2018-06-09T10:45:32.535Z,35.98
2018-06-09T10:46:42.559Z,36.47
2018-06-09T10:47:52.294Z,36.55
2018-06-09T10:49:02.296Z,36.63
2018-06-09T10:50:12.025Z,36.38
2018-06-09T10:51:21.499Z,36.38
2018-06-09T10:52:31.512Z,35.79
2018-06-09T10:53:41.231Z,35.52
2018-06-09T10:54:51.222Z,35.56
2018-06-09T10:56:01.212Z,35.35
2018-06-09T10:57:11.230Z,35.5
2018-06-09T10:58:20.969Z,35.72
2018-06-09T10:59:30.978Z,35.91
2018-06-09T11:00:40.704Z,35.94
2018-06-09T11:01:50.690Z,35.94
2018-06-09T11:03:00.164Z,35.69
2018-06-09T11:04:09.882Z,35.47
2018-06-09T11:05:19.613Z,35.49
2018-06-09T11:06:29.600Z,35.69
2018-06-09T11:07:39.594Z,35.6
2018-06-09T11:08:49.329Z,35.68
2018-06-09T11:09:59.348Z,35.81
2018-06-09T11:11:08.996Z,36.11
2018-06-09T11:12:18.985Z,36.32
2018-06-09T11:13:28.977Z,36.65
2018-06-09T11:14:38.458Z,36.76
2018-06-09T11:15:48.444Z,36.81
2018-06-09T11:16:58.448Z,36.38
2018-06-09T11:18:07.923Z,35.41
2018-06-09T11:19:17.963Z,35.15
2018-06-09T11:20:27.939Z,35.35
2018-06-09T11:21:37.940Z,35.39
2018-06-09T11:22:47.925Z,35.26
2018-06-09T11:23:57.925Z,35.42
2018-06-09T11:25:07.921Z,35.52
2018-06-09T11:26:17.905Z,36
2018-06-09T11:27:27.626Z,36.59
2018-06-09T11:28:37.601Z,36.82
2018-06-09T11:29:47.340Z,37.03
2018-06-09T11:30:57.328Z,36.76
2018-06-09T11:32:07.331Z,36.44
2018-06-09T11:33:17.327Z,36.28
2018-06-09T11:34:27.349Z,36.59
2018-06-09T11:35:36.574Z,37.01
2018-06-09T11:36:46.584Z,37.38
2018-06-09T11:37:56.306Z,38.01
2018-06-09T11:39:06.055Z,37.97
2018-06-09T11:40:16.050Z,37.68
2018-06-09T11:41:26.050Z,37.43
2018-06-09T11:42:36.039Z,37.28
2018-06-09T11:43:46.081Z,37.31
2018-06-09T11:44:56.077Z,37.16
2018-06-09T11:46:06.063Z,37.25
2018-06-09T11:47:15.669Z,37.44
2018-06-09T11:48:25.656Z,37.71
2018-06-09T11:49:35.397Z,38.23
2018-06-09T11:50:45.407Z,38.29
2018-06-09T11:51:55.384Z,37.97
2018-06-09T11:53:05.408Z,37.64
2018-06-09T11:54:15.414Z,37.48
2018-06-09T11:55:25.136Z,37.45
2018-06-09T11:56:35.116Z,37.11
2018-06-09T11:57:45.080Z,36.81
2018-06-09T11:58:54.823Z,36.75
2018-06-09T12:00:04.848Z,37.04
2018-06-09T12:01:14.835Z,37.63
2018-06-09T12:02:24.830Z,38.2
2018-06-09T12:03:34.821Z,38.57
2018-06-09T12:04:44.831Z,38.34
2018-06-09T12:05:54.848Z,38.53
2018-06-09T12:07:04.855Z,38.73
2018-06-09T12:08:14.851Z,38.95
2018-06-09T12:09:24.841Z,39.15
2018-06-09T12:10:34.843Z,39.54
2018-06-09T12:11:44.848Z,39.85
2018-06-09T12:12:54.069Z,39.7
2018-06-09T12:14:03.816Z,39.97
2018-06-09T12:15:13.538Z,39.97
2018-06-09T12:16:23.285Z,39.41
2018-06-09T12:17:33.279Z,39.45
2018-06-09T12:18:43.324Z,39.52
2018-06-09T12:19:53.329Z,39.48
2018-06-09T12:21:02.804Z,39.44
2018-06-09T12:22:12.807Z,39.45
2018-06-09T12:23:22.804Z,39.33
2018-06-09T12:24:32.532Z,38.72
2018-06-09T12:25:42.268Z,38.27
2018-06-09T12:26:52.270Z,37.68
2018-06-09T12:28:01.757Z,37.43
2018-06-09T12:29:11.517Z,36.92
2018-06-09T12:30:21.504Z,36.65
2018-06-09T12:31:31.234Z,36.29
2018-06-09T12:32:41.378Z,36.29
2018-06-09T12:33:51.371Z,36.47
2018-06-09T12:35:01.382Z,36.57
2018-06-09T12:36:11.155Z,36.63
2018-06-09T12:37:20.639Z,37.03
2018-06-09T12:38:30.653Z,37.48
2018-06-09T12:39:40.656Z,37.54
2018-06-09T12:40:50.393Z,37.75
2018-06-09T12:42:00.389Z,37.76
2018-06-09T12:43:10.382Z,38.19
2018-06-09T12:44:20.393Z,38.82
2018-06-09T12:45:30.386Z,38.7
2018-06-09T12:46:40.126Z,38.42
2018-06-09T12:47:50.131Z,38.04
2018-06-09T12:48:59.880Z,38.04
2018-06-09T12:50:09.356Z,37.98
2018-06-09T12:51:19.347Z,37.22
2018-06-09T12:52:29.082Z,36.73
2018-06-09T12:53:38.816Z,36.78
2018-06-09T12:54:48.878Z,37.04
2018-06-09T12:55:58.731Z,36.63
2018-06-09T12:57:08.460Z,36.54
2018-06-09T12:58:18.451Z,36.44
2018-06-09T12:59:28.450Z,36.43
2018-06-09T13:00:38.178Z,36.45
2018-06-09T13:01:48.184Z,37.1
2018-06-09T13:02:58.161Z,37.34
2018-06-09T13:04:08.146Z,38.02
2018-06-09T13:05:17.932Z,38.6
2018-06-09T13:06:27.926Z,39.07
2018-06-09T13:07:37.928Z,39.33
2018-06-09T13:08:47.901Z,39.33
2018-06-09T13:09:57.644Z,38.57
2018-06-09T13:11:07.641Z,37.48
2018-06-09T13:12:17.645Z,36.73
2018-06-09T13:13:27.663Z,36.41
2018-06-09T13:14:37.409Z,36.01
2018-06-09T13:15:47.400Z,35.61
2018-06-09T13:16:57.410Z,35.41
2018-06-09T13:18:07.392Z,35.22
2018-06-09T13:19:18.687Z,34.91
2018-06-09T13:20:28.688Z,34.73
2018-06-09T13:21:38.702Z,34.76
2018-06-09T13:22:48.434Z,34.53
2018-06-09T13:23:58.440Z,34.69
2018-06-09T13:25:08.450Z,35.08
2018-06-09T13:26:18.429Z,35.57
2018-06-09T13:27:28.157Z,35.6
2018-06-09T13:28:37.881Z,35.74
2018-06-09T13:29:47.616Z,35.91
2018-06-09T13:30:57.345Z,35.98
2018-06-09T13:32:07.329Z,35.63
2018-06-09T13:33:17.318Z,35.72
2018-06-09T13:34:27.384Z,35.94
2018-06-09T13:35:37.126Z,36.03
2018-06-09T13:36:47.108Z,36.08
2018-06-09T13:37:57.086Z,35.9
2018-06-09T13:39:07.088Z,36.08
2018-06-09T13:40:17.067Z,36.18
2018-06-09T13:41:26.883Z,36.47
2018-06-09T13:42:36.627Z,36.32
2018-06-09T13:43:46.354Z,36.54
2018-06-09T13:44:56.343Z,36.51
2018-06-09T13:46:06.325Z,36.28
2018-06-09T13:47:16.081Z,36.14
2018-06-09T13:48:26.068Z,36.18
2018-06-09T13:49:36.076Z,36.31
2018-06-09T13:50:46.082Z,36.41
2018-06-09T13:51:56.075Z,36.59
2018-06-09T13:53:06.069Z,37.16
2018-06-09T13:54:16.136Z,37.75
2018-06-09T13:55:26.279Z,37.68
2018-06-09T13:56:36.012Z,37.11
2018-06-09T13:57:46.060Z,36.67
2018-06-09T13:58:56.088Z,36.41
2018-06-09T14:00:05.872Z,35.88
2018-06-09T14:01:15.904Z,35.69
2018-06-09T14:02:25.895Z,35.66
2018-06-09T14:03:35.900Z,35.86
2018-06-09T14:04:45.889Z,35.81
2018-06-09T14:05:55.892Z,35.74
2018-06-09T14:07:05.902Z,35.68
2018-06-09T14:08:15.884Z,35.71
2018-06-09T14:09:25.919Z,35.54
2018-06-09T14:10:35.910Z,35.42
2018-06-09T14:11:45.383Z,35.47
2018-06-09T14:12:55.406Z,35.63
2018-06-09T14:14:05.389Z,35.84
2018-06-09T14:15:15.369Z,35.72
2018-06-09T14:16:25.363Z,35.96
2018-06-09T14:17:35.398Z,36.06
2018-06-09T14:18:45.426Z,36.45
2018-06-09T14:19:55.177Z,36.99
2018-06-09T14:21:04.682Z,36.97
2018-06-09T14:22:14.411Z,37.11
2018-06-09T14:23:24.406Z,37.15
2018-06-09T14:24:34.392Z,37.03
2018-06-09T14:25:43.867Z,37.28
2018-06-09T14:26:54.053Z,37.66
2018-06-09T14:28:04.352Z,37.82
2018-06-09T14:29:14.397Z,37.8
2018-06-09T14:30:24.388Z,38.16
2018-06-09T14:31:34.390Z,38.25
2018-06-09T14:32:44.442Z,38.38
2018-06-09T14:33:54.323Z,38.68
2018-06-09T14:35:04.312Z,39.04
2018-06-09T14:36:14.344Z,39.38
2018-06-09T14:37:24.334Z,39.11
2018-06-09T14:38:34.052Z,39.42
2018-06-09T14:39:44.041Z,39.39
2018-06-09T14:40:54.043Z,39.71
2018-06-09T14:42:04.057Z,39.76
2018-06-09T14:43:14.062Z,39.63
2018-06-09T14:44:23.806Z,39.12
2018-06-09T14:45:33.547Z,38.54
2018-06-09T14:46:43.301Z,38.12
2018-06-09T14:47:53.302Z,37.72
2018-06-09T14:49:03.048Z,37.8
2018-06-09T14:50:12.794Z,37.75
2018-06-09T14:51:22.776Z,37.33
2018-06-09T14:52:32.760Z,36.94
2018-06-09T14:53:42.513Z,36.5
2018-06-09T14:54:52.596Z,36.11
2018-06-09T14:56:02.580Z,35.91
2018-06-09T14:57:12.599Z,35.96
2018-06-09T14:58:22.345Z,35.75
2018-06-09T14:59:32.088Z,35.54
2018-06-09T15:00:42.078Z,35.54
2018-06-09T15:01:52.137Z,35.38
2018-06-09T15:03:01.881Z,35.56